Terminal Aerodrome Forecast
Issued by NWS

Home | Current Version | Previous Version | Text Only | Print | Product List | Glossary On
Versions: 1 2 3 4 5 6 7 8 9 10 11 12 13
000
FTUS45 KRIW 250500
TAFRKS
TAF
KRKS 250526Z 2506/2606 VRB06KT P6SM SCT090 BKN200
     FM250900 15008KT P6SM BKN090
     FM251600 21015KT P6SM BKN090
     FM252100 22020G30KT P6SM VCSH SCT050 OVC080
     FM260100 23010KT P6SM SCT090 BKN150=

USA.gov is the U.S. government's official web portal to all federal, state and local government web resources and services.